Time;durP1;ratioP1;P1;durP2;ratioP2;P2;SDS_P1;SDS_P2;PMS_P1;PMS_P2;Temp;Humidity;BMP_temperature;BMP_pressure;BME280_temperature;BME280_humidity;BME280_pressure;Samples;Min_cycle;Max_cycle;Signal;HPM_P1;HPM_P2
2020/12/30 00:00:57;;;;;;;4.83;2.60;;;;;;;;;;5074553;28;20571;-70
2020/12/30 00:03:23;;;;;;;6.80;2.83;;;;;;;;;;5074591;28;20642;-70
2020/12/30 00:05:50;;;;;;;4.00;2.80;;;;;;;;;;5074733;28;20268;-70
2020/12/30 00:08:17;;;;;;;3.93;2.80;;;;;;;;;;5074199;28;20224;-70
2020/12/30 00:10:44;;;;;;;3.03;2.27;;;;;;;;;;5074567;28;20202;-70
2020/12/30 00:13:12;;;;;;;5.03;2.83;;;;;;;;;;5074525;28;20210;-71
2020/12/30 00:15:39;;;;;;;3.10;2.50;;;;;;;;;;5074277;28;20236;-70
2020/12/30 00:18:06;;;;;;;7.17;2.93;;;;;;;;;;5074457;28;20226;-70
2020/12/30 00:20:33;;;;;;;5.83;3.10;;;;;;;;;;5074512;28;20220;-70
2020/12/30 00:23:00;;;;;;;5.57;3.03;;;;;;;;;;5073869;28;20202;-69
2020/12/30 00:25:29;;;;;;;4.37;2.73;;;;;;;;;;5074095;28;20226;-71
2020/12/30 00:27:56;;;;;;;6.27;2.70;;;;;;;;;;5074175;28;20199;-71
2020/12/30 00:30:24;;;;;;;6.47;2.87;;;;;;;;;;5074277;28;20202;-70
2020/12/30 00:32:51;;;;;;;4.97;3.23;;;;;;;;;;5074072;28;20206;-70
2020/12/30 00:35:18;;;;;;;4.57;2.80;;;;;;;;;;5074086;28;20309;-70
2020/12/30 00:37:48;;;;;;;3.93;2.67;;;;;;;;;;5073496;28;20644;-70
2020/12/30 00:40:15;;;;;;;7.13;2.77;;;;;;;;;;5074058;28;20238;-71
2020/12/30 00:42:42;;;;;;;4.60;2.70;;;;;;;;;;5073967;28;20211;-70
2020/12/30 00:45:10;;;;;;;5.63;2.90;;;;;;;;;;5073665;28;20226;-70
2020/12/30 00:47:38;;;;;;;4.60;2.90;;;;;;;;;;5073184;28;20206;-70
2020/12/30 00:50:05;;;;;;;5.03;2.83;;;;;;;;;;5060682;28;20286;-70
2020/12/30 00:52:32;;;;;;;4.40;2.77;;;;;;;;;;5060117;28;20290;-70
2020/12/30 00:55:01;;;;;;;7.10;3.27;;;;;;;;;;5060067;28;20227;-71
2020/12/30 00:57:28;;;;;;;6.13;2.90;;;;;;;;;;5060173;28;20235;-71
2020/12/30 00:59:55;;;;;;;4.10;2.90;;;;;;;;;;5060088;28;20686;-70
2020/12/30 01:02:22;;;;;;;5.03;3.03;;;;;;;;;;5060376;28;20217;-71
2020/12/30 01:04:50;;;;;;;5.27;2.80;;;;;;;;;;5060335;28;20281;-71
2020/12/30 01:07:18;;;;;;;4.90;2.90;;;;;;;;;;5060066;28;20289;-70
2020/12/30 01:09:45;;;;;;;4.40;2.80;;;;;;;;;;5060032;28;20203;-70
2020/12/30 01:12:12;;;;;;;5.03;3.40;;;;;;;;;;5059830;28;20746;-71
2020/12/30 01:14:39;;;;;;;5.03;3.47;;;;;;;;;;5060018;28;20230;-70
2020/12/30 01:17:06;;;;;;;6.93;3.93;;;;;;;;;;5059935;28;20744;-70
2020/12/30 01:19:33;;;;;;;5.30;3.97;;;;;;;;;;5059985;28;20734;-70
2020/12/30 01:22:00;;;;;;;7.30;4.23;;;;;;;;;;5059812;28;20207;-70
2020/12/30 01:24:27;;;;;;;8.03;3.90;;;;;;;;;;5059853;28;20231;-70
2020/12/30 01:26:54;;;;;;;7.27;3.77;;;;;;;;;;5059899;28;20290;-70
2020/12/30 01:29:21;;;;;;;7.33;3.67;;;;;;;;;;5059847;28;20302;-70
2020/12/30 01:31:48;;;;;;;4.13;3.13;;;;;;;;;;5059578;28;20545;-70
2020/12/30 01:34:15;;;;;;;5.13;3.37;;;;;;;;;;5059591;28;20258;-70
2020/12/30 01:36:43;;;;;;;4.73;3.10;;;;;;;;;;5059360;28;20303;-70
2020/12/30 01:39:11;;;;;;;5.60;2.97;;;;;;;;;;5059430;28;20310;-70
2020/12/30 01:41:37;;;;;;;6.63;2.97;;;;;;;;;;5059613;28;20207;-71
2020/12/30 01:44:05;;;;;;;4.40;2.90;;;;;;;;;;5059214;28;20210;-70
2020/12/30 01:46:36;;;;;;;8.07;2.53;;;;;;;;;;5059668;28;20215;-71
2020/12/30 01:49:04;;;;;;;5.57;2.80;;;;;;;;;;5059482;28;20215;-70
2020/12/30 01:51:31;;;;;;;3.77;2.57;;;;;;;;;;5059283;28;20293;-70
2020/12/30 01:53:59;;;;;;;4.30;2.43;;;;;;;;;;5059058;28;20297;-71
2020/12/30 01:56:29;;;;;;;4.97;2.50;;;;;;;;;;5059138;28;20256;-70
2020/12/30 01:58:56;;;;;;;2.03;1.83;;;;;;;;;;5059104;28;20222;-70
2020/12/30 02:01:26;;;;;;;4.23;2.43;;;;;;;;;;5058257;28;20207;-71
2020/12/30 02:03:54;;;;;;;6.40;2.80;;;;;;;;;;5059076;28;20688;-71
2020/12/30 02:06:21;;;;;;;3.77;2.37;;;;;;;;;;5058863;28;20672;-71
2020/12/30 02:08:48;;;;;;;4.43;2.90;;;;;;;;;;5059043;28;20206;-71
2020/12/30 02:11:15;;;;;;;3.07;2.30;;;;;;;;;;5058906;28;20202;-71
2020/12/30 02:13:43;;;;;;;2.67;2.10;;;;;;;;;;5059047;28;20213;-71
2020/12/30 02:16:10;;;;;;;5.10;2.37;;;;;;;;;;5058714;28;20305;-70
2020/12/30 02:18:54;;;;;;;3.23;2.10;;;;;;;;;;5058619;28;20308;-71
2020/12/30 02:21:21;;;;;;;4.10;2.53;;;;;;;;;;5058641;28;20222;-71
2020/12/30 02:23:48;;;;;;;2.63;2.03;;;;;;;;;;5058613;28;20638;-70
2020/12/30 02:26:16;;;;;;;4.63;2.17;;;;;;;;;;5058695;28;20206;-71
2020/12/30 02:28:43;;;;;;;3.07;2.20;;;;;;;;;;5058881;28;20213;-71
2020/12/30 02:31:10;;;;;;;3.87;2.30;;;;;;;;;;5058643;28;20237;-71
2020/12/30 02:33:37;;;;;;;5.23;2.50;;;;;;;;;;5058750;28;20298;-71
2020/12/30 02:36:04;;;;;;;3.90;2.57;;;;;;;;;;5058206;28;20226;-70
2020/12/30 02:38:31;;;;;;;4.00;2.03;;;;;;;;;;5058195;28;20235;-71
2020/12/30 02:41:01;;;;;;;4.40;2.57;;;;;;;;;;5058267;28;20245;-70
2020/12/30 02:43:29;;;;;;;3.87;2.47;;;;;;;;;;5058512;28;20364;-70
2020/12/30 02:45:56;;;;;;;4.03;2.13;;;;;;;;;;5058339;28;20749;-70
2020/12/30 02:48:23;;;;;;;2.03;1.93;;;;;;;;;;5058147;28;20243;-71
2020/12/30 02:50:50;;;;;;;3.17;2.10;;;;;;;;;;5058371;28;20215;-71
2020/12/30 02:53:20;;;;;;;2.73;2.03;;;;;;;;;;5058167;28;20205;-71
2020/12/30 02:55:47;;;;;;;2.80;2.27;;;;;;;;;;5057943;28;20239;-71
2020/12/30 02:58:14;;;;;;;3.90;2.30;;;;;;;;;;5057892;28;20716;-71
2020/12/30 03:00:42;;;;;;;4.83;2.60;;;;;;;;;;5058052;28;20203;-71
2020/12/30 03:03:09;;;;;;;5.83;2.70;;;;;;;;;;5058278;28;20213;-70
2020/12/30 03:05:36;;;;;;;4.43;2.17;;;;;;;;;;5058022;28;20258;-71
2020/12/30 03:08:03;;;;;;;2.60;2.40;;;;;;;;;;5057843;28;20210;-71
2020/12/30 03:10:30;;;;;;;4.47;2.70;;;;;;;;;;5057775;28;20210;-71
2020/12/30 03:12:57;;;;;;;3.03;1.93;;;;;;;;;;5057615;28;20677;-71
2020/12/30 03:15:24;;;;;;;4.33;2.77;;;;;;;;;;5057796;28;20219;-71
2020/12/30 03:17:52;;;;;;;3.07;2.20;;;;;;;;;;5057771;28;20313;-71
2020/12/30 03:20:19;;;;;;;2.83;1.90;;;;;;;;;;5057963;28;20685;-71
2020/12/30 03:22:46;;;;;;;3.97;2.37;;;;;;;;;;5057463;28;20581;-71
2020/12/30 03:25:12;;;;;;;4.07;2.47;;;;;;;;;;5057822;28;20313;-71
2020/12/30 03:27:39;;;;;;;4.00;2.63;;;;;;;;;;5057522;28;20572;-70
2020/12/30 03:30:07;;;;;;;2.90;2.37;;;;;;;;;;5057793;28;20298;-70
2020/12/30 03:32:34;;;;;;;6.23;2.67;;;;;;;;;;5057460;28;20219;-71
2020/12/30 03:35:02;;;;;;;4.40;2.47;;;;;;;;;;5057680;28;20306;-70
2020/12/30 03:37:29;;;;;;;4.53;2.97;;;;;;;;;;5057034;28;20246;-70
2020/12/30 03:39:56;;;;;;;3.37;2.17;;;;;;;;;;5057469;28;20651;-70
2020/12/30 03:42:24;;;;;;;2.73;2.00;;;;;;;;;;5057296;28;20207;-70
2020/12/30 03:44:51;;;;;;;4.07;2.37;;;;;;;;;;5057394;28;20227;-70
2020/12/30 03:47:18;;;;;;;6.53;2.33;;;;;;;;;;5057301;28;20741;-70
2020/12/30 03:49:45;;;;;;;3.50;2.30;;;;;;;;;;5057675;28;20293;-70
2020/12/30 03:52:12;;;;;;;3.30;2.23;;;;;;;;;;5057347;28;20289;-70
2020/12/30 03:54:39;;;;;;;4.33;2.60;;;;;;;;;;5057570;28;20225;-70
2020/12/30 03:57:06;;;;;;;3.60;2.10;;;;;;;;;;5057130;28;20281;-70
2020/12/30 03:59:36;;;;;;;4.50;2.17;;;;;;;;;;5057496;28;20290;-70
2020/12/30 04:02:03;;;;;;;2.20;2.00;;;;;;;;;;5057178;28;20320;-70
2020/12/30 04:04:30;;;;;;;3.10;1.90;;;;;;;;;;5057446;28;20309;-70
2020/12/30 04:06:57;;;;;;;2.50;1.77;;;;;;;;;;5056933;28;20262;-70
2020/12/30 04:09:25;;;;;;;3.70;2.30;;;;;;;;;;5057321;28;20199;-70
2020/12/30 04:11:52;;;;;;;3.17;2.13;;;;;;;;;;5057330;28;20213;-70
2020/12/30 04:14:19;;;;;;;2.63;2.00;;;;;;;;;;5057229;28;20313;-70
2020/12/30 04:16:46;;;;;;;4.00;2.17;;;;;;;;;;5057438;28;20213;-71
2020/12/30 04:19:13;;;;;;;3.43;1.80;;;;;;;;;;5057101;28;20231;-70
2020/12/30 04:21:40;;;;;;;3.67;2.60;;;;;;;;;;5057078;28;20324;-71
2020/12/30 04:24:07;;;;;;;3.70;2.27;;;;;;;;;;5058704;28;20214;-70
2020/12/30 04:26:35;;;;;;;2.33;1.73;;;;;;;;;;5060840;28;20213;-70
2020/12/30 04:29:04;;;;;;;4.07;2.17;;;;;;;;;;5061135;28;20200;-70
2020/12/30 04:31:31;;;;;;;2.67;2.20;;;;;;;;;;5061059;28;20206;-70
2020/12/30 04:33:58;;;;;;;3.13;1.97;;;;;;;;;;5060879;28;20289;-70
2020/12/30 04:36:25;;;;;;;3.20;2.33;;;;;;;;;;5060183;28;20199;-70
2020/12/30 04:38:52;;;;;;;3.17;2.40;;;;;;;;;;5060890;28;20234;-70
2020/12/30 04:41:24;;;;;;;4.73;2.67;;;;;;;;;;5060771;28;20207;-71
2020/12/30 04:43:52;;;;;;;3.47;2.17;;;;;;;;;;5060500;28;20199;-70
2020/12/30 04:46:19;;;;;;;3.83;2.17;;;;;;;;;;5060517;28;20574;-71
2020/12/30 04:48:47;;;;;;;5.40;2.00;;;;;;;;;;5060643;28;20203;-70
2020/12/30 04:51:14;;;;;;;3.43;2.00;;;;;;;;;;5060291;28;20206;-70
2020/12/30 04:53:42;;;;;;;4.40;1.93;;;;;;;;;;5060379;28;20599;-70
2020/12/30 04:56:10;;;;;;;4.23;2.23;;;;;;;;;;5060154;28;20318;-70
2020/12/30 04:58:37;;;;;;;3.20;2.00;;;;;;;;;;5060233;28;20227;-70
2020/12/30 05:01:07;;;;;;;4.17;2.33;;;;;;;;;;5060205;28;20573;-71
2020/12/30 05:03:39;;;;;;;3.30;2.10;;;;;;;;;;5060382;28;20213;-71
2020/12/30 05:06:06;;;;;;;3.23;2.03;;;;;;;;;;5059811;28;20334;-71
2020/12/30 05:08:33;;;;;;;3.40;2.00;;;;;;;;;;5060075;28;20210;-70
2020/12/30 05:11:00;;;;;;;3.10;2.40;;;;;;;;;;5060198;28;20294;-70
2020/12/30 05:13:27;;;;;;;4.60;2.57;;;;;;;;;;5060229;28;20666;-71
2020/12/30 05:15:58;;;;;;;2.80;2.37;;;;;;;;;;5058569;28;20309;-70
2020/12/30 05:18:26;;;;;;;2.10;1.90;;;;;;;;;;5058449;28;20584;-68
2020/12/30 05:20:53;;;;;;;4.93;2.17;;;;;;;;;;5059375;28;20237;-69
2020/12/30 05:23:20;;;;;;;4.63;2.43;;;;;;;;;;5059962;28;20296;-70
2020/12/30 05:25:47;;;;;;;7.43;2.97;;;;;;;;;;5059018;28;20768;-70
2020/12/30 05:28:15;;;;;;;4.10;2.70;;;;;;;;;;5059202;28;20673;-71
2020/12/30 05:30:43;;;;;;;3.73;2.47;;;;;;;;;;5059481;28;20234;-71
2020/12/30 05:33:10;;;;;;;4.37;2.33;;;;;;;;;;5059049;28;20225;-69
2020/12/30 05:35:38;;;;;;;4.60;2.60;;;;;;;;;;5059063;28;20249;-71
2020/12/30 05:38:05;;;;;;;3.77;2.20;;;;;;;;;;5058141;28;20233;-71
2020/12/30 05:40:33;;;;;;;5.20;2.40;;;;;;;;;;5059100;28;20735;-71
2020/12/30 05:43:18;;;;;;;3.50;2.30;;;;;;;;;;5058872;28;20199;-71
2020/12/30 05:45:46;;;;;;;2.77;2.30;;;;;;;;;;5058458;28;20226;-71
2020/12/30 05:48:14;;;;;;;6.17;2.33;;;;;;;;;;5058922;28;20669;-71
2020/12/30 05:50:48;;;;;;;4.20;2.40;;;;;;;;;;5059115;28;20207;-71
2020/12/30 05:53:15;;;;;;;3.07;2.30;;;;;;;;;;5057184;28;20198;-71
2020/12/30 05:55:43;;;;;;;5.03;2.50;;;;;;;;;;5058908;28;20685;-70
2020/12/30 05:58:13;;;;;;;4.90;2.63;;;;;;;;;;5055877;28;20777;-71
2020/12/30 06:00:41;;;;;;;5.63;2.73;;;;;;;;;;5058759;28;20207;-71
2020/12/30 06:03:08;;;;;;;6.40;2.97;;;;;;;;;;5058857;28;20207;-71
2020/12/30 06:05:35;;;;;;;5.70;2.77;;;;;;;;;;5056941;28;20227;-70
2020/12/30 06:08:03;;;;;;;4.53;2.67;;;;;;;;;;5058204;28;20286;-70
2020/12/30 06:10:32;;;;;;;4.30;2.63;;;;;;;;;;5058729;28;20214;-71
2020/12/30 06:13:00;;;;;;;5.40;2.83;;;;;;;;;;5058183;28;20255;-71
2020/12/30 06:15:27;;;;;;;4.53;2.67;;;;;;;;;;5058958;28;20286;-71
2020/12/30 06:17:55;;;;;;;3.47;2.50;;;;;;;;;;5058380;28;20769;-71
2020/12/30 06:20:23;;;;;;;5.77;2.83;;;;;;;;;;5056678;28;20294;-71
2020/12/30 06:22:54;;;;;;;4.87;3.07;;;;;;;;;;5056795;28;20202;-71
2020/12/30 06:25:23;;;;;;;3.37;2.53;;;;;;;;;;5056589;28;20315;-71
2020/12/30 06:27:51;;;;;;;4.33;2.93;;;;;;;;;;5056766;28;20649;-70
2020/12/30 06:30:18;;;;;;;4.00;2.17;;;;;;;;;;5056641;28;20580;-71
2020/12/30 06:32:45;;;;;;;6.47;2.83;;;;;;;;;;5056828;28;20246;-70
2020/12/30 06:35:12;;;;;;;4.70;2.43;;;;;;;;;;5058384;28;20225;-71
2020/12/30 06:37:41;;;;;;;5.10;2.63;;;;;;;;;;5057991;28;20249;-71
2020/12/30 06:40:26;;;;;;;3.73;2.67;;;;;;;;;;5056212;28;20590;-70
2020/12/30 06:42:58;;;;;;;3.30;2.60;;;;;;;;;;5058164;28;20262;-71
2020/12/30 06:45:43;;;;;;;2.57;2.27;;;;;;;;;;5058306;28;20349;-71
2020/12/30 06:48:10;;;;;;;2.87;2.30;;;;;;;;;;5057627;28;20207;-71
2020/12/30 06:50:38;;;;;;;4.83;2.27;;;;;;;;;;5057967;28;20225;-71
2020/12/30 06:53:19;;;;;;;4.57;2.03;;;;;;;;;;5057861;28;20202;-71
2020/12/30 06:55:46;;;;;;;4.97;2.83;;;;;;;;;;5057718;28;20223;-71
2020/12/30 06:58:28;;;;;;;4.77;2.10;;;;;;;;;;5057797;28;20752;-71
2020/12/30 07:00:59;;;;;;;4.27;2.30;;;;;;;;;;5057664;28;20260;-71
2020/12/30 07:03:31;;;;;;;5.63;2.00;;;;;;;;;;5057741;28;20207;-70
2020/12/30 07:06:21;;;;;;;1.10;1.00;;;;;;;;;;5057663;28;20298;-70
2020/12/30 07:08:48;;;;;;;1.00;0.90;;;;;;;;;;5057885;28;20641;-70
2020/12/30 07:11:30;;;;;;;0.90;0.77;;;;;;;;;;5057955;28;20241;-71
2020/12/30 07:13:59;;;;;;;1.43;1.27;;;;;;;;;;5057626;28;20209;-70
2020/12/30 07:16:32;;;;;;;1.93;0.97;;;;;;;;;;5057724;28;20207;-71
2020/12/30 07:18:59;;;;;;;1.17;1.07;;;;;;;;;;5057889;28;20238;-71
2020/12/30 07:21:26;;;;;;;1.70;1.13;;;;;;;;;;5057596;28;20238;-71
2020/12/30 07:23:54;;;;;;;1.20;1.10;;;;;;;;;;5057727;28;20210;-71
2020/12/30 07:26:21;;;;;;;3.23;1.20;;;;;;;;;;5057484;28;20623;-70
2020/12/30 07:28:48;;;;;;;1.33;1.03;;;;;;;;;;5057772;28;20662;-70
2020/12/30 07:31:17;;;;;;;1.27;0.90;;;;;;;;;;5057917;28;20257;-71
2020/12/30 07:33:45;;;;;;;0.90;0.80;;;;;;;;;;5057887;28;20292;-71
2020/12/30 07:36:15;;;;;;;1.00;0.60;;;;;;;;;;5057265;28;20674;-71
2020/12/30 07:38:45;;;;;;;1.17;0.90;;;;;;;;;;5057365;28;20236;-71
2020/12/30 07:41:13;;;;;;;1.30;0.73;;;;;;;;;;5057422;28;20215;-70
2020/12/30 07:43:47;;;;;;;1.90;0.80;;;;;;;;;;5057593;28;20239;-71
2020/12/30 07:46:18;;;;;;;0.63;0.63;;;;;;;;;;5057579;28;20206;-71
2020/12/30 07:48:46;;;;;;;1.93;0.83;;;;;;;;;;5057442;28;20208;-71
2020/12/30 07:51:13;;;;;;;1.33;0.70;;;;;;;;;;5057521;28;20264;-72
2020/12/30 07:53:40;;;;;;;2.57;1.00;;;;;;;;;;5057316;28;20612;-71
2020/12/30 07:56:21;;;;;;;2.23;0.83;;;;;;;;;;5057184;28;20226;-71
2020/12/30 07:58:48;;;;;;;2.37;0.93;;;;;;;;;;5058823;28;20226;-71
2020/12/30 08:01:16;;;;;;;1.97;1.07;;;;;;;;;;5061307;28;20203;-71
2020/12/30 08:03:43;;;;;;;2.30;1.10;;;;;;;;;;5061458;28;20207;-71
2020/12/30 08:06:11;;;;;;;1.60;1.00;;;;;;;;;;5061213;28;20262;-72
2020/12/30 08:08:41;;;;;;;1.10;1.00;;;;;;;;;;5061110;28;20303;-71
2020/12/30 08:11:08;;;;;;;3.17;1.07;;;;;;;;;;5061160;28;20292;-71
2020/12/30 08:13:38;;;;;;;1.83;1.10;;;;;;;;;;5061191;28;20225;-71
2020/12/30 08:16:10;;;;;;;1.47;1.20;;;;;;;;;;5061004;28;20234;-71
2020/12/30 08:18:37;;;;;;;1.27;0.90;;;;;;;;;;5060752;28;20345;-71
2020/12/30 08:21:09;;;;;;;3.33;0.97;;;;;;;;;;5057843;28;20253;-71
2020/12/30 08:23:37;;;;;;;0.73;0.60;;;;;;;;;;5061193;28;20245;-71
2020/12/30 08:26:05;;;;;;;0.73;0.70;;;;;;;;;;5060399;28;20215;-71
2020/12/30 08:28:34;;;;;;;0.60;0.60;;;;;;;;;;5055044;28;20241;-70
2020/12/30 08:31:02;;;;;;;1.00;0.70;;;;;;;;;;5059410;28;20195;-70
2020/12/30 08:33:29;;;;;;;1.00;1.00;;;;;;;;;;5066357;28;20202;-72
2020/12/30 08:36:01;;;;;;;0.53;0.53;;;;;;;;;;5059671;28;20233;-71
2020/12/30 08:38:29;;;;;;;0.50;0.50;;;;;;;;;;5060239;28;20481;-71
2020/12/30 08:40:58;;;;;;;0.40;0.40;;;;;;;;;;5058721;28;20425;-71
2020/12/30 08:43:44;;;;;;;0.50;0.50;;;;;;;;;;5059241;28;20449;-71
2020/12/30 08:46:18;;;;;;;1.07;0.80;;;;;;;;;;5058274;28;20876;-72
2020/12/30 08:48:46;;;;;;;1.70;0.60;;;;;;;;;;5058874;28;20441;-71
2020/12/30 08:51:29;;;;;;;0.70;0.70;;;;;;;;;;5058618;28;20437;-71
2020/12/30 08:53:57;;;;;;;0.70;0.70;;;;;;;;;;5057658;28;20867;-72
2020/12/30 08:56:25;;;;;;;1.27;0.70;;;;;;;;;;5056193;28;20429;-71
2020/12/30 08:58:52;;;;;;;0.80;0.80;;;;;;;;;;5058031;28;20488;-72
2020/12/30 09:01:20;;;;;;;1.73;0.80;;;;;;;;;;5057415;28;20209;-72
2020/12/30 09:03:47;;;;;;;0.63;0.60;;;;;;;;;;5058685;28;20473;-73
2020/12/30 09:06:29;;;;;;;1.00;0.70;;;;;;;;;;5057374;28;20199;-73
2020/12/30 09:09:07;;;;;;;1.80;0.60;;;;;;;;;;5055589;28;20194;-72
2020/12/30 09:11:36;;;;;;;0.57;0.57;;;;;;;;;;5056631;28;20866;-72
2020/12/30 09:14:13;;;;;;;0.93;0.40;;;;;;;;;;5058089;28;20631;-72
2020/12/30 09:16:53;;;;;;;0.60;0.60;;;;;;;;;;5056084;28;20446;-72
2020/12/30 09:19:20;;;;;;;1.47;0.60;;;;;;;;;;5057708;28;20567;-73
2020/12/30 09:21:47;;;;;;;0.60;0.60;;;;;;;;;;5056263;28;20757;-72
2020/12/30 09:24:14;;;;;;;0.67;0.67;;;;;;;;;;5057477;28;20325;-73
2020/12/30 09:26:42;;;;;;;0.40;0.40;;;;;;;;;;5056468;28;20205;-72
2020/12/30 09:29:19;;;;;;;0.93;0.70;;;;;;;;;;5057993;28;20241;-73
2020/12/30 09:31:52;;;;;;;0.53;0.53;;;;;;;;;;5057474;28;20194;-73
2020/12/30 09:34:19;;;;;;;0.30;0.30;;;;;;;;;;5057987;28;20540;-72
2020/12/30 09:36:56;;;;;;;0.50;0.50;;;;;;;;;;5057463;28;20896;-71
2020/12/30 09:39:23;;;;;;;0.57;0.50;;;;;;;;;;5057594;28;20561;-72
2020/12/30 09:41:59;;;;;;;0.53;0.53;;;;;;;;;;5058622;28;20433;-71
2020/12/30 09:44:26;;;;;;;0.40;0.40;;;;;;;;;;5058903;28;21027;-72
2020/12/30 09:46:54;;;;;;;0.53;0.53;;;;;;;;;;5058963;28;20441;-71
2020/12/30 09:49:22;;;;;;;0.50;0.50;;;;;;;;;;5058064;28;20488;-72
2020/12/30 09:51:54;;;;;;;0.60;0.60;;;;;;;;;;5055527;28;20468;-72
2020/12/30 09:54:21;;;;;;;1.20;1.10;;;;;;;;;;5058434;28;20483;-71
2020/12/30 09:56:52;;;;;;;0.80;0.80;;;;;;;;;;5059112;28;20440;-72
2020/12/30 09:59:21;;;;;;;1.57;0.70;;;;;;;;;;5057586;28;20983;-73
2020/12/30 10:01:48;;;;;;;0.90;0.90;;;;;;;;;;5053411;28;20461;-72
2020/12/30 10:04:15;;;;;;;0.77;0.77;;;;;;;;;;5053101;28;22125;-72
2020/12/30 10:06:45;;;;;;;3.50;0.70;;;;;;;;;;5053124;28;20453;-72
2020/12/30 10:09:12;;;;;;;0.50;0.50;;;;;;;;;;5053925;28;20452;-72
2020/12/30 10:11:39;;;;;;;0.83;0.70;;;;;;;;;;5052977;28;20534;-73
2020/12/30 10:14:07;;;;;;;0.50;0.50;;;;;;;;;;5053102;28;20472;-72
2020/12/30 10:16:34;;;;;;;6.03;2.17;;;;;;;;;;5052735;28;20453;-72
2020/12/30 10:19:05;;;;;;;1.90;0.90;;;;;;;;;;5055014;28;20505;-72
2020/12/30 10:21:33;;;;;;;0.80;0.77;;;;;;;;;;5057511;28;20445;-72
2020/12/30 10:24:00;;;;;;;1.23;1.13;;;;;;;;;;5056949;28;20458;-72
2020/12/30 10:26:27;;;;;;;1.00;1.00;;;;;;;;;;5054341;28;20457;-70
2020/12/30 10:28:54;;;;;;;1.33;1.23;;;;;;;;;;5055754;28;20445;-69
2020/12/30 10:31:21;;;;;;;1.17;0.90;;;;;;;;;;5058092;28;20426;-71
2020/12/30 10:33:50;;;;;;;1.00;1.00;;;;;;;;;;5057822;28;20532;-71
2020/12/30 10:36:17;;;;;;;0.80;0.80;;;;;;;;;;5057825;28;21004;-71
2020/12/30 10:38:44;;;;;;;0.90;0.90;;;;;;;;;;5057736;28;20912;-71
2020/12/30 10:41:15;;;;;;;1.07;0.90;;;;;;;;;;5058054;28;20438;-71
2020/12/30 10:43:43;;;;;;;1.03;1.03;;;;;;;;;;5058116;28;20438;-71
2020/12/30 10:46:14;;;;;;;0.90;0.90;;;;;;;;;;5057775;28;20538;-71
2020/12/30 10:48:45;;;;;;;2.93;1.17;;;;;;;;;;5057177;28;20441;-70
2020/12/30 10:51:13;;;;;;;1.20;1.17;;;;;;;;;;5056765;28;20843;-70
2020/12/30 10:53:40;;;;;;;1.20;1.10;;;;;;;;;;5057740;28;20437;-70
2020/12/30 10:56:08;;;;;;;1.40;1.30;;;;;;;;;;5056885;28;20475;-70
2020/12/30 10:58:35;;;;;;;1.20;1.20;;;;;;;;;;5057507;28;20478;-70
2020/12/30 11:01:09;;;;;;;7.00;3.93;;;;;;;;;;5059300;28;20487;-70
2020/12/30 11:03:36;;;;;;;1.40;1.30;;;;;;;;;;5058951;28;20460;-69
2020/12/30 11:06:04;;;;;;;2.00;1.87;;;;;;;;;;5059115;28;20469;-70
2020/12/30 11:08:31;;;;;;;2.57;1.50;;;;;;;;;;5059267;28;20795;-71
2020/12/30 11:10:58;;;;;;;2.37;1.53;;;;;;;;;;5058323;28;20975;-70
2020/12/30 11:13:25;;;;;;;1.63;1.50;;;;;;;;;;5058222;28;20438;-70
2020/12/30 11:15:52;;;;;;;1.67;1.30;;;;;;;;;;5058109;28;20469;-71
2020/12/30 11:18:20;;;;;;;2.53;1.30;;;;;;;;;;5057829;28;20640;-71
2020/12/30 11:20:47;;;;;;;2.17;1.40;;;;;;;;;;5057414;28;20458;-71
2020/12/30 11:23:15;;;;;;;2.67;1.70;;;;;;;;;;5056781;28;20433;-70
2020/12/30 11:25:41;;;;;;;2.00;1.73;;;;;;;;;;5055487;28;20513;-72
2020/12/30 11:28:08;;;;;;;1.60;1.50;;;;;;;;;;5057255;28;20917;-73
2020/12/30 11:30:35;;;;;;;1.70;1.60;;;;;;;;;;5057741;28;20469;-73
2020/12/30 11:33:03;;;;;;;1.83;1.63;;;;;;;;;;5057405;28;20538;-73
2020/12/30 11:35:30;;;;;;;1.60;1.50;;;;;;;;;;5057183;28;20532;-73
2020/12/30 11:37:57;;;;;;;1.60;1.50;;;;;;;;;;5056563;28;20501;-73
2020/12/30 11:40:26;;;;;;;2.97;1.77;;;;;;;;;;5056654;28;20469;-73
2020/12/30 11:42:53;;;;;;;3.20;1.60;;;;;;;;;;5054438;28;20452;-73
2020/12/30 11:45:20;;;;;;;2.03;1.73;;;;;;;;;;5055722;28;20948;-73
2020/12/30 11:47:47;;;;;;;3.10;2.20;;;;;;;;;;5056519;28;20448;-73
2020/12/30 11:50:15;;;;;;;2.37;2.17;;;;;;;;;;5056784;28;20444;-73
2020/12/30 11:52:42;;;;;;;4.23;2.23;;;;;;;;;;5056203;28;20446;-72
2020/12/30 11:55:09;;;;;;;2.23;2.03;;;;;;;;;;5055877;28;20461;-72
2020/12/30 11:57:37;;;;;;;2.43;2.30;;;;;;;;;;5056382;28;20991;-73
2020/12/30 12:00:05;;;;;;;6.77;3.50;;;;;;;;;;5055124;28;20223;-67
2020/12/30 12:02:33;;;;;;;3.33;2.23;;;;;;;;;;5055090;28;20196;-70
2020/12/30 12:05:00;;;;;;;2.90;2.43;;;;;;;;;;5055563;28;20229;-71
2020/12/30 12:07:28;;;;;;;4.17;2.80;;;;;;;;;;5053103;28;20199;-72
2020/12/30 12:09:55;;;;;;;2.60;2.40;;;;;;;;;;5055369;28;20564;-72
2020/12/30 12:12:22;;;;;;;2.40;2.20;;;;;;;;;;5054039;28;20195;-72
2020/12/30 12:14:50;;;;;;;3.23;2.80;;;;;;;;;;5054760;28;20219;-71
2020/12/30 12:17:17;;;;;;;4.33;2.97;;;;;;;;;;5054487;28;20213;-72
2020/12/30 12:19:44;;;;;;;4.17;2.90;;;;;;;;;;5054473;28;20313;-71
2020/12/30 12:22:13;;;;;;;3.40;3.10;;;;;;;;;;5055314;28;20203;-72
2020/12/30 12:24:40;;;;;;;3.13;2.73;;;;;;;;;;5054118;28;20314;-72
2020/12/30 12:27:10;;;;;;;2.23;2.03;;;;;;;;;;5056612;28;20285;-72
2020/12/30 12:29:44;;;;;;;2.33;2.00;;;;;;;;;;5056704;28;20278;-72
2020/12/30 12:32:12;;;;;;;4.00;1.90;;;;;;;;;;5056380;28;20199;-72
2020/12/30 12:34:40;;;;;;;3.67;2.37;;;;;;;;;;5055992;28;20694;-72
2020/12/30 12:37:10;;;;;;;2.40;2.10;;;;;;;;;;5056113;28;20290;-71
2020/12/30 12:39:39;;;;;;;2.33;2.13;;;;;;;;;;5056069;28;20223;-73
2020/12/30 12:42:06;;;;;;;2.40;2.17;;;;;;;;;;5056145;28;20639;-71
2020/12/30 12:44:33;;;;;;;3.10;2.00;;;;;;;;;;5056775;28;20221;-70
2020/12/30 12:47:00;;;;;;;2.37;2.17;;;;;;;;;;5056553;28;20599;-71
2020/12/30 12:49:29;;;;;;;3.30;2.03;;;;;;;;;;5059310;28;20218;-70
2020/12/30 12:51:56;;;;;;;1.60;1.50;;;;;;;;;;5058942;28;20203;-70
2020/12/30 12:54:28;;;;;;;2.40;1.53;;;;;;;;;;5059200;28;20223;-71
2020/12/30 12:56:56;;;;;;;3.33;2.57;;;;;;;;;;5059235;28;20209;-70
2020/12/30 12:59:23;;;;;;;3.13;2.40;;;;;;;;;;5059267;28;20233;-71
2020/12/30 13:01:50;;;;;;;2.67;1.90;;;;;;;;;;5059133;28;20199;-70
2020/12/30 13:04:17;;;;;;;4.00;2.20;;;;;;;;;;5058811;28;20219;-73
2020/12/30 13:06:45;;;;;;;2.63;2.30;;;;;;;;;;5058460;28;20293;-72
2020/12/30 13:09:12;;;;;;;2.87;2.20;;;;;;;;;;5058880;28;20282;-70
2020/12/30 13:11:43;;;;;;;3.10;2.30;;;;;;;;;;5058252;28;20205;-71
2020/12/30 13:14:10;;;;;;;3.57;2.37;;;;;;;;;;5058065;28;20231;-71
2020/12/30 13:16:37;;;;;;;4.07;2.13;;;;;;;;;;5058430;28;20293;-71
2020/12/30 13:19:05;;;;;;;1.97;1.80;;;;;;;;;;5058592;28;20222;-72
2020/12/30 13:21:36;;;;;;;2.30;1.90;;;;;;;;;;5058286;28;20211;-70
2020/12/30 13:24:04;;;;;;;2.90;2.00;;;;;;;;;;5058687;28;20203;-70
2020/12/30 13:26:31;;;;;;;1.70;1.60;;;;;;;;;;5058159;28;20285;-73
2020/12/30 13:28:58;;;;;;;2.87;1.90;;;;;;;;;;5055872;28;20199;-73
2020/12/30 13:31:24;;;;;;;2.03;1.93;;;;;;;;;;5058230;28;20207;-72
2020/12/30 13:33:51;;;;;;;1.97;1.60;;;;;;;;;;5058306;28;20217;-73
2020/12/30 13:36:19;;;;;;;1.77;1.67;;;;;;;;;;5058159;28;20241;-73
2020/12/30 13:38:46;;;;;;;3.13;1.63;;;;;;;;;;5059218;28;20669;-73
2020/12/30 13:41:15;;;;;;;1.77;1.33;;;;;;;;;;5059154;28;20203;-70
2020/12/30 13:43:43;;;;;;;1.87;1.57;;;;;;;;;;5059579;28;20215;-72
2020/12/30 13:46:10;;;;;;;2.30;2.00;;;;;;;;;;5056436;28;20215;-73
2020/12/30 13:48:42;;;;;;;3.00;2.17;;;;;;;;;;5058929;28;20203;-72
2020/12/30 13:51:09;;;;;;;2.13;1.60;;;;;;;;;;5058945;28;20219;-74
2020/12/30 13:53:36;;;;;;;4.07;1.60;;;;;;;;;;5058126;28;20210;-73
2020/12/30 13:56:03;;;;;;;2.00;1.80;;;;;;;;;;5057677;28;20218;-72
2020/12/30 13:58:32;;;;;;;1.77;1.67;;;;;;;;;;5057820;28;20203;-72
2020/12/30 14:00:58;;;;;;;3.93;1.60;;;;;;;;;;5057763;28;20223;-73
2020/12/30 14:03:26;;;;;;;6.20;1.70;;;;;;;;;;5058542;28;20230;-73
2020/12/30 14:05:53;;;;;;;1.80;1.70;;;;;;;;;;5058376;28;20227;-73
2020/12/30 14:08:20;;;;;;;2.27;1.80;;;;;;;;;;5058550;28;20210;-73
2020/12/30 14:10:47;;;;;;;2.60;1.50;;;;;;;;;;5058331;28;20294;-73
2020/12/30 14:13:14;;;;;;;3.50;1.63;;;;;;;;;;5056628;28;20257;-74
2020/12/30 14:15:42;;;;;;;1.90;1.80;;;;;;;;;;5058362;28;20764;-73
2020/12/30 14:18:09;;;;;;;3.50;1.90;;;;;;;;;;5058382;28;20298;-73
2020/12/30 14:20:36;;;;;;;3.07;1.80;;;;;;;;;;5058224;28;20262;-73
2020/12/30 14:23:03;;;;;;;2.87;1.90;;;;;;;;;;5058256;28;20207;-73
2020/12/30 14:25:30;;;;;;;3.20;2.00;;;;;;;;;;5057766;28;20218;-74
2020/12/30 14:27:57;;;;;;;2.60;1.80;;;;;;;;;;5058267;28;20203;-74
2020/12/30 14:30:25;;;;;;;1.90;1.60;;;;;;;;;;5058185;28;20203;-74
2020/12/30 14:32:53;;;;;;;2.33;1.93;;;;;;;;;;5058478;28;20266;-75
2020/12/30 14:35:20;;;;;;;1.90;1.80;;;;;;;;;;5057633;28;20306;-74
2020/12/30 14:37:47;;;;;;;2.30;1.70;;;;;;;;;;5045014;28;20323;-75
2020/12/30 14:40:14;;;;;;;2.00;1.53;;;;;;;;;;5058664;28;20227;-75
2020/12/30 14:42:40;;;;;;;2.87;2.20;;;;;;;;;;5058266;28;20213;-75
2020/12/30 14:45:08;;;;;;;4.67;2.57;;;;;;;;;;5058214;28;20301;-74
2020/12/30 14:47:35;;;;;;;4.50;2.70;;;;;;;;;;5058425;28;20286;-75
2020/12/30 14:50:03;;;;;;;4.60;2.47;;;;;;;;;;5058200;28;20577;-75